Flight Track Log - Related Links

Times and Time Zones

All times are in EDT time to prevent confusion due to time zone crossing. See the N717AN flight status page for this flight to view local times or setup timezone preferences in your user account.

Time Position Orientation Groundspeed Altitude Reporting Facility
EDT Latitude Longitude Course Direction KTS MPH feet Rate Location/Type
Fri 08:50:07 PM -23.4210 -46.4340 73° East 192 221 3,300  Level FlightAware ADS-B
Fri 08:50:32 PM -23.4140 -46.4110 72° East 202 232 4,200 1,855 Climbing FlightAware ADS-B
Fri 08:51:02 PM -23.4050 -46.3810 72° East 225 259 5,000 1,467 Climbing FlightAware ADS-B
Fri 08:51:17 PM -23.4000 -46.3630 73° East 240 276 5,300 1,350 Climbing FlightAware ADS-B
Fri 08:51:42 PM -23.3900 -46.3320 71° East 270 311 5,900 1,800 Climbing FlightAware ADS-B
Fri 08:51:57 PM -23.3840 -46.3130 71° East 278 320 6,500 2,400 Climbing FlightAware ADS-B
Fri 08:52:27 PM -23.3720 -46.2730 72° East 289 333 7,700 2,850 Climbing FlightAware ADS-B
Fri 08:52:37 PM -23.3640 -46.2590 58° Northeast 287 330 8,400 2,600 Climbing FlightAware ADS-B
Fri 08:52:57 PM -23.3430 -46.2410 38° Northeast 301 346 9,000 1,900 Climbing FlightAware ADS-B
Fri 08:53:37 PM -23.2890 -46.2260 14° North 314 361 10,300 1,760 Climbing FlightAware ADS-B
Fri 08:54:12 PM -23.2330 -46.2110 14° North 353 406 11,200 1,624 Climbing FlightAware ADS-B
Fri 08:55:02 PM -23.1500 -46.1880 14° North 383 441 12,600 1,553 Climbing FlightAware ADS-B
Fri 08:55:37 PM -23.0870 -46.1760 10° North 399 459 13,400 1,745 Climbing FlightAware ADS-B
Fri 08:55:57 PM -23.0490 -46.1800 354° North 405 466 14,200 2,500 Climbing FlightAware ADS-B
Fri 08:56:37 PM -22.9720 -46.1930 351° North 411 473 15,900 2,118 Climbing FlightAware ADS-B
Fri 08:57:22 PM -22.8860 -46.2080 351° North 424 488 17,200 1,835 Climbing FlightAware ADS-B
Fri 08:58:02 PM -22.8070 -46.2210 351° North 425 489 18,500 1,725 Climbing FlightAware ADS-B
Fri 08:58:42 PM -22.7260 -46.2360 350° North 439 505 19,500 1,553 Climbing FlightAware ADS-B
Fri 08:59:27 PM -22.6360 -46.2510 351° North 452 520 20,700 1,624 Climbing FlightAware ADS-B
Fri 09:00:07 PM -22.5460 -46.2660 351° North 472 543 21,800 1,778 Climbing FlightAware ADS-B
Fri 09:01:42 PM -22.3480 -46.3000 351° North 470 541 24,700 1,650 Climbing FlightAware ADS-B
Fri 09:04:00 PM -22.0762 -46.4196 338° Northwest  Level Estimated
Fri 09:04:07 PM -22.0270 -46.3560 338° Northwest 490 564 28,400  Level FlightAware ADS-B
Fri 09:04:47 PM -21.9300 -46.3740 350° North 506 582 29,200 1,425 Climbing FlightAware ADS-B
Fri 09:05:27 PM -21.8400 -46.3900 351° North 505 581 30,300 1,360 Climbing FlightAware ADS-B
Fri 09:06:02 PM -21.7550 -46.4030 352° North 501 577 30,900 525 Climbing FlightAware ADS-B
Fri 09:06:47 PM -21.6540 -46.4200 351° North 504 580 31,000 71 Climbing FlightAware ADS-B
Fri 09:07:27 PM -21.5570 -46.4360 351° North 501 577 31,000  Level FlightAware ADS-B
Fri 09:08:12 PM -21.4560 -46.4520 352° North 488 562 31,000  Level FlightAware ADS-B
Fri 09:08:52 PM -21.3650 -46.4670 351° North 485 558 31,000  Level FlightAware ADS-B
Fri 09:09:32 PM -21.2780 -46.4810 351° North 485 558 31,000  Level FlightAware ADS-B
Fri 09:10:12 PM -21.1900 -46.4960 351° North 484 557 31,000  Level FlightAware ADS-B
Fri 09:11:07 PM -21.0640 -46.5170 351° North 489 563 31,000  Level FlightAware ADS-B
Fri 09:12:07 PM -20.9390 -46.5370 352° North 488 562 31,000  Level FlightAware ADS-B
Fri 09:12:47 PM -20.8330 -46.5540 351° North 485 558 31,000  Level FlightAware ADS-B
Fri 09:13:32 PM -20.7300 -46.5700 352° North 485 558 31,000  Level FlightAware ADS-B
Fri 09:14:27 PM -20.6150 -46.5900 351° North 487 560 31,000  Level FlightAware ADS-B
Fri 09:15:12 PM -20.5050 -46.6070 352° North 489 563 31,000  Level FlightAware ADS-B
Fri 09:15:52 PM -20.4250 -46.6220 350° North 488 562 31,000  Level FlightAware ADS-B
Fri 09:16:32 PM -20.3300 -46.6390 350° North 489 563 31,000  Level FlightAware ADS-B
Fri 09:17:17 PM -20.2390 -46.6570 349° North 489 563 31,000  Level FlightAware ADS-B
Fri 09:17:57 PM -20.1630 -46.6710 350° North 489 563 31,000  Level FlightAware ADS-B
Fri 09:18:37 PM -20.0870 -46.6850 350° North 489 563 31,000  Level FlightAware ADS-B
Fri 09:19:17 PM -20.0110 -46.6990 350° North 489 563 31,000  Level FlightAware ADS-B
Fri 09:20:07 PM -19.9170 -46.7170 350° North 489 563 31,000  Level FlightAware ADS-B
Fri 09:20:47 PM -19.8410 -46.7310 350° North 489 563 31,000  Level FlightAware ADS-B
Fri 09:21:27 PM -19.7650 -46.7450 350° North 489 563 31,000  Level FlightAware ADS-B
Fri 09:22:07 PM -19.6900 -46.7600 349° North 489 563 31,000  Level FlightAware ADS-B
Fri 09:22:57 PM -19.5950 -46.7770 350° North 489 563 31,000  Level FlightAware ADS-B
Fri 09:23:37 PM -19.5190 -46.7910 350° North 489 563 31,000  Level FlightAware ADS-B
Fri 09:24:17 PM -19.4430 -46.8060 349° North 489 563 31,000  Level FlightAware ADS-B
Fri 09:24:57 PM -19.3680 -46.8200 350° North 489 563 31,000  Level FlightAware ADS-B
Fri 09:25:37 PM -19.2920 -46.8340 350° North 489 563 31,000  Level FlightAware ADS-B
Fri 09:26:27 PM -19.1970 -46.8520 350° North 489 563 31,000 95 Level FlightAware ADS-B
Fri 09:28:00 PM -19.0127 -46.9320 338° Northwest  Level Estimated
Fri 09:29:00 PM -18.8937 -46.9835 338° Northwest  Level Estimated
Fri 09:30:00 PM -18.7748 -47.0349 338° Northwest  Level Estimated
Fri 09:31:00 PM -18.6558 -47.0863 338° Northwest  Level Estimated
Fri 09:32:00 PM -18.5369 -47.1376 338° Northwest  Level Estimated
Fri 09:33:00 PM -18.4179 -47.1888 338° Northwest  Level Estimated
Fri 09:34:00 PM -18.2989 -47.2399 338° Northwest  Level Estimated
Fri 09:35:00 PM -18.1798 -47.2910 338° Northwest  Level Estimated
Fri 09:36:00 PM -18.0608 -47.3420 338° Northwest  Level Estimated
Fri 09:37:00 PM -17.9418 -47.3930 338° Northwest  Level Estimated
Fri 09:38:00 PM -17.8227 -47.4438 338° Northwest  Level Estimated
Fri 09:39:00 PM -17.7036 -47.4946 338° Northwest  Level Estimated
Fri 09:40:00 PM -17.5846 -47.5454 338° Northwest  Level Estimated
Fri 09:41:00 PM -17.4655 -47.5960 338° Northwest  Level Estimated
Fri 09:42:00 PM -17.3463 -47.6466 338° Northwest  Level Estimated
Fri 09:43:00 PM -17.2272 -47.6972 338° Northwest  Level Estimated
Fri 09:44:00 PM -17.1081 -47.7476 338° Northwest  Level Estimated
Fri 09:45:00 PM -16.9889 -47.7980 338° Northwest  Level Estimated
Fri 09:46:00 PM -16.8698 -47.8484 338° Northwest  Level Estimated
Fri 09:46:42 PM -16.5730 -47.7910 338° Northwest 462 532 33,000  Level FlightAware ADS-B
Fri 09:47:27 PM -16.4870 -47.8360 333° Northwest 461 531 33,000  Level FlightAware ADS-B
Fri 09:48:07 PM -16.4120 -47.8740 334° Northwest 460 529 33,000  Level FlightAware ADS-B
Fri 09:48:47 PM -16.3350 -47.9140 334° Northwest 462 532 33,000  Level FlightAware ADS-B
Fri 09:49:32 PM -16.2470 -47.9580 334° Northwest 466 536 33,000  Level FlightAware ADS-B
Fri 09:50:12 PM -16.1740 -47.9960 333° Northwest 466 536 33,000  Level FlightAware ADS-B
Fri 09:50:52 PM -16.0910 -48.0380 334° Northwest 465 535 33,000  Level FlightAware ADS-B
Fri 09:51:32 PM -16.0170 -48.0760 334° Northwest 466 536 33,000  Level FlightAware ADS-B
Fri 09:52:17 PM -15.9320 -48.1190 334° Northwest 466 536 33,000  Level FlightAware ADS-B
Fri 09:52:52 PM -15.8660 -48.1530 334° Northwest 465 535 33,000  Level FlightAware ADS-B
Fri 09:53:57 PM -15.7440 -48.2160 334° Northwest 464 534 33,000  Level FlightAware ADS-B
Fri 09:54:37 PM -15.6560 -48.2590 335° Northwest 466 536 33,000  Level FlightAware ADS-B
Fri 09:55:17 PM -15.5770 -48.3000 333° Northwest 466 536 33,000  Level FlightAware ADS-B
Fri 09:55:57 PM -15.5030 -48.3370 334° Northwest 468 539 33,000  Level FlightAware ADS-B
Fri 09:56:42 PM -15.4110 -48.3840 334° Northwest 466 536 33,000  Level FlightAware ADS-B
Fri 09:57:27 PM -15.3250 -48.4270 334° Northwest 464 534 33,000  Level FlightAware ADS-B
Fri 09:58:02 PM -15.2580 -48.4610 334° Northwest 464 534 33,000  Level FlightAware ADS-B
Fri 09:58:52 PM -15.1660 -48.5080 334° Northwest 463 533 33,000  Level FlightAware ADS-B
Fri 09:59:32 PM -15.0860 -48.5480 334° Northwest 464 534 33,000  Level FlightAware ADS-B
Fri 10:00:12 PM -15.0050 -48.5890 334° Northwest 465 535 33,000  Level FlightAware ADS-B
Fri 10:00:57 PM -14.9180 -48.6330 334° Northwest 465 535 33,000  Level FlightAware ADS-B
Fri 10:01:37 PM -14.8440 -48.6700 334° Northwest 466 536 33,000  Level FlightAware ADS-B
Fri 10:02:17 PM -14.7610 -48.7120 334° Northwest 466 536 33,000  Level FlightAware ADS-B
Fri 10:02:57 PM -14.6930 -48.7480 333° Northwest 466 536 33,000  Level FlightAware ADS-B
Fri 10:03:37 PM -14.6280 -48.7820 333° Northwest 466 536 33,000  Level FlightAware ADS-B
Fri 10:04:27 PM -14.5460 -48.8250 333° Northwest 466 536 33,000  Level FlightAware ADS-B
Fri 10:05:07 PM -14.4810 -48.8590 333° Northwest 466 536 33,000  Level FlightAware ADS-B
Fri 10:05:47 PM -14.3680 -48.9110 336° Northwest 466 536 33,000  Level FlightAware ADS-B
Fri 10:06:27 PM -14.3020 -48.9450 333° Northwest 466 536 33,000  Level FlightAware ADS-B
Fri 10:07:07 PM -14.2370 -48.9800 332° Northwest 466 536 33,000  Level FlightAware ADS-B
Fri 10:07:57 PM -14.1550 -49.0230 333° Northwest 466 536 33,000  Level FlightAware ADS-B
Fri 10:08:37 PM -14.0900 -49.0570 333° Northwest 466 536 33,000  Level FlightAware ADS-B
Fri 10:09:17 PM -14.0250 -49.0910 333° Northwest 466 536 33,000  Level FlightAware ADS-B
Fri 10:09:57 PM -13.9590 -49.1260 333° Northwest 466 536 33,000  Level FlightAware ADS-B
Fri 10:10:37 PM -13.8940 -49.1600 333° Northwest 466 536 33,000  Level FlightAware ADS-B
Fri 10:11:27 PM -13.8120 -49.2030 333° Northwest 466 536 33,000  Level FlightAware ADS-B
Fri 10:12:07 PM -13.7470 -49.2370 333° Northwest 466 536 33,000  Level FlightAware ADS-B
Fri 10:12:47 PM -13.6820 -49.2710 333° Northwest 466 536 33,000  Level FlightAware ADS-B
Fri 10:13:27 PM -13.6170 -49.3050 333° Northwest 466 536 33,000  Level FlightAware ADS-B
Fri 10:14:07 PM -13.5510 -49.3400 333° Northwest 466 536 33,000  Level FlightAware ADS-B
Fri 10:14:57 PM -13.4700 -49.3820 333° Northwest 466 536 33,000 414 Level FlightAware ADS-B
Fri 10:16:32 PM -13.1000 -49.5410 337° Northwest 472 543 34,000 429 Climbing FlightAware ADS-B
Fri 10:17:17 PM -13.0160 -49.5820 335° Northwest 471 542 34,000  Level FlightAware ADS-B
Fri 10:17:57 PM -12.9360 -49.6220 334° Northwest 471 542 34,000  Level FlightAware ADS-B
Fri 10:18:32 PM -12.8690 -49.6550 334° Northwest 472 543 34,000  Level FlightAware ADS-B
Fri 10:19:17 PM -12.7890 -49.6950 334° Northwest 472 543 34,000  Level FlightAware ADS-B
Fri 10:19:52 PM -12.8690 -49.6550 154° Southeast 34,000  Level FlightAware ADS-B
Fri 10:20:47 PM -12.6010 -49.7880 334° Northwest 472 543 34,000  Level FlightAware ADS-B
Fri 10:21:42 PM -12.4880 -49.8430 335° Northwest 471 542 34,000  Level FlightAware ADS-B
Fri 10:22:37 PM -12.3910 -49.8910 334° Northwest 473 544 34,000  Level FlightAware ADS-B
Fri 10:23:22 PM -12.2950 -49.9380 334° Northwest 474 545 34,000  Level FlightAware ADS-B
Fri 10:23:57 PM -12.2210 -49.9740 335° Northwest 474 545 34,000  Level FlightAware ADS-B
Fri 10:24:37 PM -12.1470 -50.0110 334° Northwest 475 547 34,000  Level FlightAware ADS-B
Fri 10:25:27 PM -12.0430 -50.0620 334° Northwest 473 544 34,000  Level FlightAware ADS-B
Fri 10:26:02 PM -11.9820 -50.0920 334° Northwest 473 544 34,000  Level FlightAware ADS-B
Fri 10:26:42 PM -11.9150 -50.1250 334° Northwest 473 544 34,000  Level FlightAware ADS-B
Fri 10:28:52 PM -11.6450 -50.2570 339° North 475 547 34,000  Level FlightAware ADS-B
Fri 10:29:00 PM -11.6396 -50.2346 339° North  Level Estimated
Fri 10:29:32 PM -11.5780 -50.2910 334° Northwest 475 547 34,000  Level FlightAware ADS-B
Fri 10:30:32 PM -11.4460 -50.3540 335° Northwest 476 548 34,000  Level FlightAware ADS-B
Fri 10:33:00 PM -11.1505 -50.4710 339° North  Level Estimated
Fri 10:34:00 PM -11.0307 -50.5184 339° North  Level Estimated
Fri 10:35:00 PM -10.9108 -50.5657 339° North  Level Estimated
Fri 10:35:17 PM -10.8700 -50.6350 339° North 477 549 34,000  Level FlightAware ADS-B
Fri 10:36:02 PM -10.7820 -50.6770 335° Northwest 478 550 34,000  Level FlightAware ADS-B
Fri 10:36:47 PM -10.6980 -50.7190 334° Northwest 478 550 34,000  Level FlightAware ADS-B
Fri 10:37:42 PM -10.5900 -50.7710 335° Northwest 479 551 34,000  Level FlightAware ADS-B
Fri 10:38:22 PM -10.5220 -50.8040 334° Northwest 479 551 34,000  Level FlightAware ADS-B
Fri 10:39:12 PM -10.4380 -50.8460 334° Northwest 479 551 34,000  Level FlightAware ADS-B
Fri 10:41:00 PM -10.2229 -50.9302 339° North  Level Estimated
Fri 10:41:57 PM -10.0870 -51.0770 339° North 482 555 34,000  Level FlightAware ADS-B
Fri 10:42:00 PM -10.1034 -50.9770 339° North  Level Estimated
Fri 10:42:42 PM -10.0150 -51.1330 323° Northwest 482 555 34,000  Level FlightAware ADS-B
Fri 10:43:22 PM -9.9550 -51.1800 322° Northwest 482 555 34,000  Level FlightAware ADS-B
Fri 10:44:02 PM -9.8690 -51.2450 323° Northwest 481 554 34,000  Level FlightAware ADS-B
Fri 10:44:47 PM -9.7920 -51.3030 323° Northwest 480 552 34,000  Level FlightAware ADS-B
Fri 10:45:22 PM -9.7390 -51.3450 322° Northwest 480 552 34,000  Level FlightAware ADS-B
Fri 10:46:12 PM -9.6640 -51.4040 322° Northwest 480 552 34,000  Level FlightAware ADS-B
Fri 10:46:52 PM -9.6050 -51.4510 322° Northwest 480 552 34,000  Level FlightAware ADS-B
Fri 10:47:32 PM -9.5450 -51.4980 322° Northwest 480 552 34,000  Level FlightAware ADS-B
Fri 10:48:12 PM -9.4860 -51.5460 321° Northwest 480 552 34,000  Level FlightAware ADS-B
Fri 10:48:52 PM -9.4260 -51.5930 322° Northwest 480 552 34,000  Level FlightAware ADS-B
Fri 10:49:42 PM -9.3520 -51.6520 322° Northwest 480 552 34,000  Level FlightAware ADS-B
Fri 10:50:22 PM -9.2920 -51.6990 322° Northwest 480 552 34,000  Level FlightAware ADS-B
Fri 10:51:02 PM -9.2330 -51.7460 322° Northwest 480 552 34,000  Level FlightAware ADS-B
Fri 10:51:42 PM -9.1730 -51.7930 322° Northwest 480 552 34,000  Level FlightAware ADS-B
Fri 10:52:22 PM -9.1140 -51.8400 322° Northwest 480 552 34,000  Level FlightAware ADS-B
Fri 10:53:12 PM -9.0400 -51.8990 322° Northwest 480 552 34,000  Level FlightAware ADS-B
Fri 10:53:52 PM -8.9800 -51.9460 322° Northwest 480 552 34,000  Level FlightAware ADS-B
Fri 10:54:32 PM -8.9210 -51.9930 322° Northwest 480 552 34,000  Level FlightAware ADS-B
Fri 10:57:00 PM -8.6251 -52.1050 339° North  Level Estimated
Fri 10:58:00 PM -8.5052 -52.1503 340° North  Level Estimated
Fri 10:59:00 PM -8.3853 -52.1956 340° North  Level Estimated
Fri 11:00:00 PM -8.2653 -52.2409 340° North  Level Estimated
Fri 11:01:00 PM -8.1453 -52.2861 340° North  Level Estimated
Fri 11:02:00 PM -8.0254 -52.3314 340° North  Level Estimated
Fri 11:03:00 PM -7.9054 -52.3766 340° North  Level Estimated
Fri 11:04:00 PM -7.7854 -52.4217 340° North  Level Estimated
Fri 11:05:00 PM -7.6654 -52.4669 340° North  Level Estimated
Fri 11:06:00 PM -7.5454 -52.5120 340° North  Level Estimated
Fri 11:07:00 PM -7.4254 -52.5571 340° North  Level Estimated
Fri 11:08:00 PM -7.3054 -52.6022 340° North  Level Estimated
Fri 11:09:00 PM -7.1855 -52.6472 340° North  Level Estimated
Fri 11:10:00 PM -7.0654 -52.6922 340° North  Level Estimated
Fri 11:11:00 PM -6.9454 -52.7373 340° North  Level Estimated
Fri 11:12:00 PM -6.8254 -52.7822 340° North  Level Estimated
Fri 11:13:00 PM -6.7054 -52.8272 340° North  Level Estimated
Fri 11:14:00 PM -6.5854 -52.8721 340° North  Level Estimated
Fri 11:15:00 PM -6.4653 -52.9170 340° North  Level Estimated
Fri 11:16:00 PM -6.3453 -52.9619 340° North  Level Estimated
Fri 11:17:00 PM -6.2253 -53.0068 340° North  Level Estimated
Fri 11:18:00 PM -6.1052 -53.0516 340° North  Level Estimated
Fri 11:19:00 PM -5.9852 -53.0965 340° North  Level Estimated
Fri 11:20:00 PM -5.8651 -53.1413 340° North  Level Estimated
Fri 11:21:00 PM -5.7451 -53.1861 340° North  Level Estimated
Fri 11:22:00 PM -5.6250 -53.2308 340° North  Level Estimated
Fri 11:23:00 PM -5.5050 -53.2756 340° North  Level Estimated
Fri 11:24:00 PM -5.3849 -53.3203 340° North  Level Estimated
Fri 11:25:00 PM -5.2649 -53.3650 340° North  Level Estimated
Fri 11:26:00 PM -5.1448 -53.4097 340° North  Level Estimated
Fri 11:27:00 PM -5.0247 -53.4544 340° North  Level Estimated
Fri 11:28:00 PM -4.9047 -53.4991 340° North  Level Estimated
Fri 11:29:00 PM -4.7846 -53.5437 340° North  Level Estimated
Fri 11:30:00 PM -4.6645 -53.5884 340° North  Level Estimated
Fri 11:31:00 PM -4.5444 -53.6330 340° North  Level Estimated
Fri 11:32:00 PM -4.4243 -53.6776 340° North  Level Estimated
Fri 11:33:00 PM -4.3042 -53.7222 340° North  Level Estimated
Fri 11:34:00 PM -4.1842 -53.7668 340° North  Level Estimated
Fri 11:35:00 PM -4.0641 -53.8113 340° North  Level Estimated
Fri 11:36:00 PM -3.9440 -53.8559 340° North  Level Estimated
Fri 11:37:00 PM -3.8239 -53.9004 340° North  Level Estimated
Fri 11:38:00 PM -3.7038 -53.9449 340° North  Level Estimated
Fri 11:39:00 PM -3.5837 -53.9894 340° North  Level Estimated
Fri 11:40:00 PM -3.4636 -54.0339 340° North  Level Estimated
Fri 11:41:00 PM -3.3435 -54.0784 340° North  Level Estimated
Fri 11:42:00 PM -3.2233 -54.1229 340° North  Level Estimated
Fri 11:43:00 PM -3.1032 -54.1674 340° North  Level Estimated
Fri 11:44:00 PM -2.9831 -54.2118 340° North  Level Estimated
Fri 11:45:00 PM -2.8630 -54.2563 340° North  Level Estimated
Fri 11:46:00 PM -2.7429 -54.3007 340° North  Level Estimated
Fri 11:47:00 PM -2.6228 -54.3452 340° North  Level Estimated
Fri 11:48:00 PM -2.5027 -54.3896 340° North  Level Estimated
Fri 11:49:00 PM -2.3825 -54.4340 340° North  Level Estimated
Fri 11:50:00 PM -2.2624 -54.4784 340° North  Level Estimated
Fri 11:51:00 PM -2.1423 -54.5228 340° North  Level Estimated
Fri 11:52:00 PM -2.0222 -54.5672 340° North  Level Estimated
Fri 11:53:00 PM -1.9020 -54.6116 340° North  Level Estimated
Fri 11:54:00 PM -1.7819 -54.6559 340° North  Level Estimated
Fri 11:55:00 PM -1.6618 -54.7003 340° North  Level Estimated
Fri 11:56:00 PM -1.5417 -54.7447 340° North  Level Estimated
Fri 11:57:00 PM -1.4215 -54.7890 340° North  Level Estimated
Fri 11:58:00 PM -1.3014 -54.8334 340° North  Level Estimated
Fri 11:59:00 PM -1.1813 -54.8778 340° North  Level Estimated
Sat 12:00:00 AM -1.0611 -54.9221 340° North  Level Estimated
Sat 12:01:00 AM -0.9410 -54.9664 340° North  Level Estimated
Sat 12:02:00 AM -0.8209 -55.0108 340° North  Level Estimated
Sat 12:03:00 AM -0.7007 -55.0551 340° North  Level Estimated
Sat 12:04:00 AM -0.5806 -55.0995 340° North  Level Estimated
Sat 12:05:00 AM -0.4605 -55.1438 340° North  Level Estimated
Sat 12:06:00 AM -0.3404 -55.1881 340° North  Level Estimated
Sat 12:07:00 AM -0.2202 -55.2325 340° North  Level Estimated
Sat 12:08:00 AM -0.1001 -55.2768 340° North  Level Estimated
Sat 12:09:00 AM 0.0201 -55.3211 340° North  Level Estimated
Sat 12:10:00 AM 0.1402 -55.3655 340° North  Level Estimated
Sat 12:11:00 AM 0.2603 -55.4098 340° North  Level Estimated
Sat 12:12:00 AM 0.3805 -55.4541 340° North  Level Estimated
Sat 12:13:00 AM 0.5006 -55.4985 340° North  Level Estimated
Sat 12:14:00 AM 0.6207 -55.5428 340° North  Level Estimated
Sat 12:15:00 AM 0.7409 -55.5871 340° North  Level Estimated
Sat 12:16:00 AM 0.8610 -55.6315 340° North  Level Estimated
Sat 12:17:00 AM 0.9811 -55.6758 340° North  Level Estimated
Sat 12:18:00 AM 1.1013 -55.7202 340° North  Level Estimated
Sat 12:19:00 AM 1.2214 -55.7645 340° North  Level Estimated
Sat 12:20:00 AM 1.3415 -55.8089 340° North  Level Estimated
Sat 12:21:00 AM 1.4616 -55.8532 340° North  Level Estimated
Sat 12:22:00 AM 1.5818 -55.8976 340° North  Level Estimated
Sat 12:23:00 AM 1.7019 -55.9420 340° North  Level Estimated
Sat 12:24:00 AM 1.8220 -55.9863 340° North  Level Estimated
Sat 12:25:00 AM 1.9422 -56.0307 340° North  Level Estimated
Sat 12:26:00 AM 2.0623 -56.0751 340° North  Level Estimated
Sat 12:27:00 AM 2.1824 -56.1195 340° North  Level Estimated
Sat 12:28:00 AM 2.3025 -56.1639 340° North  Level Estimated
Sat 12:29:00 AM 2.4227 -56.2083 340° North  Level Estimated
Sat 12:30:00 AM 2.5428 -56.2527 340° North  Level Estimated
Sat 12:31:00 AM 2.6629 -56.2971 340° North  Level Estimated
Sat 12:32:00 AM 2.7830 -56.3416 340° North  Level Estimated
Sat 12:33:00 AM 2.9031 -56.3860 340° North  Level Estimated
Sat 12:34:00 AM 3.0232 -56.4305 340° North  Level Estimated
Sat 12:35:00 AM 3.1433 -56.4749 340° North  Level Estimated
Sat 12:36:00 AM 3.2634 -56.5194 340° North  Level Estimated
Sat 12:37:00 AM 3.3836 -56.5639 340° North  Level Estimated
Sat 12:38:00 AM 3.5037 -56.6083 340° North  Level Estimated
Sat 12:39:00 AM 3.6238 -56.6529 340° North  Level Estimated
Sat 12:40:00 AM 3.7439 -56.6974 340° North  Level Estimated
Sat 12:41:00 AM 3.8640 -56.7419 340° North  Level Estimated
Sat 12:42:00 AM 3.9841 -56.7864 340° North  Level Estimated
Sat 12:43:00 AM 4.1042 -56.8310 340° North  Level Estimated
Sat 12:44:00 AM 4.2242 -56.8756 340° North  Level Estimated
Sat 12:45:00 AM 4.3443 -56.9201 340° North  Level Estimated
Sat 12:46:00 AM 4.4644 -56.9647 340° North  Level Estimated
Sat 12:47:00 AM 4.5845 -57.0093 340° North  Level Estimated
Sat 12:48:00 AM 4.7046 -57.0540 340° North  Level Estimated
Sat 12:49:00 AM 4.8247 -57.0986 340° North  Level Estimated
Sat 12:50:00 AM 4.9447 -57.1433 340° North  Level Estimated
Sat 12:51:00 AM 5.0648 -57.1879 340° North  Level Estimated
Sat 12:52:00 AM 5.1849 -57.2326 340° North  Level Estimated
Sat 12:53:00 AM 5.3050 -57.2773 340° North  Level Estimated
Sat 12:54:00 AM 5.4250 -57.3220 340° North  Level Estimated
Sat 12:55:00 AM 5.5451 -57.3668 340° North  Level Estimated
Sat 12:56:00 AM 5.6651 -57.4115 340° North  Level Estimated
Sat 12:57:00 AM 5.7852 -57.4563 340° North  Level Estimated
Sat 12:58:00 AM 5.9052 -57.5011 340° North  Level Estimated
Sat 12:59:00 AM 6.0253 -57.5460 340° North  Level Estimated
Sat 01:00:00 AM 6.1453 -57.5908 340° North  Level Estimated
Sat 01:01:00 AM 6.2654 -57.6357 340° North  Level Estimated
Sat 01:02:00 AM 6.3854 -57.6805 340° North  Level Estimated
Sat 01:03:00 AM 6.5054 -57.7254 340° North  Level Estimated
Sat 01:04:00 AM 6.6255 -57.7704 340° North  Level Estimated
Sat 01:05:00 AM 6.7455 -57.8153 340° North  Level Estimated
Sat 01:06:00 AM 6.8655 -57.8602 340° North  Level Estimated
Sat 01:07:00 AM 6.9855 -57.9052 340° North  Level Estimated
Sat 01:08:00 AM 7.1055 -57.9502 340° North  Level Estimated
Sat 01:09:00 AM 7.2255 -57.9953 340° North  Level Estimated
Sat 01:10:00 AM 7.3455 -58.0403 340° North  Level Estimated
Sat 01:11:00 AM 7.4655 -58.0854 340° North  Level Estimated
Sat 01:12:00 AM 7.5855 -58.1305 340° North  Level Estimated
Sat 01:13:00 AM 7.7055 -58.1757 340° North  Level Estimated
Sat 01:14:00 AM 7.8255 -58.2208 340° North  Level Estimated
Sat 01:15:00 AM 7.9455 -58.2660 340° North  Level Estimated
Sat 01:16:00 AM 8.0654 -58.3112 340° North  Level Estimated
Sat 01:17:00 AM 8.1854 -58.3564 340° North  Level Estimated
Sat 01:18:00 AM 8.3054 -58.4017 340° North  Level Estimated
Sat 01:19:00 AM 8.4253 -58.4470 340° North  Level Estimated
Sat 01:20:00 AM 8.5453 -58.4923 340° North  Level Estimated
Sat 01:21:00 AM 8.6652 -58.5377 340° North  Level Estimated
Sat 01:22:00 AM 8.7852 -58.5830 340° North  Level Estimated
Sat 01:23:00 AM 8.9051 -58.6285 339° North  Level Estimated
Sat 01:24:00 AM 9.0250 -58.6739 339° North  Level Estimated
Sat 01:25:00 AM 9.1450 -58.7194 339° North  Level Estimated
Sat 01:26:00 AM 9.2649 -58.7649 339° North  Level Estimated
Sat 01:27:00 AM 9.3848 -58.8104 339° North  Level Estimated
Sat 01:28:00 AM 9.5047 -58.8559 339° North  Level Estimated
Sat 01:29:00 AM 9.6246 -58.9015 339° North  Level Estimated
Sat 01:30:00 AM 9.7445 -58.9472 339° North  Level Estimated
Sat 01:31:00 AM 9.8644 -58.9928 339° North  Level Estimated
Sat 01:32:00 AM 9.9843 -59.0385 339° North  Level Estimated
Sat 01:33:00 AM 10.1042 -59.0842 339° North  Level Estimated
Sat 01:34:00 AM 10.2240 -59.1300 339° North  Level Estimated
Sat 01:35:00 AM 10.3439 -59.1758 339° North  Level Estimated
Sat 01:36:00 AM 10.4638 -59.2216 339° North  Level Estimated
Sat 01:37:00 AM 10.5836 -59.2675 339° North  Level Estimated
Sat 01:38:00 AM 10.7015 -59.3126 339° North  Level Estimated
Sat 01:39:00 AM 10.8194 -59.3578 339° North  Level Estimated
Sat 01:40:00 AM 10.9373 -59.4030 339° North  Level Estimated
Sat 01:41:00 AM 11.0552 -59.4483 339° North  Level Estimated
Sat 01:42:00 AM 11.1731 -59.4936 339° North  Level Estimated
Sat 01:43:00 AM 11.2909 -59.5389 339° North  Level Estimated
Sat 01:44:00 AM 11.4088 -59.5843 339° North  Level Estimated
Sat 01:45:00 AM 11.5267 -59.6297 339° North  Level Estimated
Sat 01:46:00 AM 11.6445 -59.6752 339° North  Level Estimated
Sat 01:47:00 AM 11.7623 -59.7206 339° North  Level Estimated
Sat 01:48:00 AM 11.8802 -59.7662 339° North  Level Estimated
Sat 01:49:00 AM 11.9980 -59.8117 339° North  Level Estimated
Sat 01:50:00 AM 12.1158 -59.8573 339° North  Level Estimated
Sat 01:51:00 AM 12.2336 -59.9030 339° North  Level Estimated
Sat 01:52:00 AM 12.3514 -59.9486 339° North  Level Estimated
Sat 01:53:00 AM 12.4692 -59.9944 339° North  Level Estimated
Sat 01:54:00 AM 12.5870 -60.0401 339° North  Level Estimated
Sat 01:55:00 AM 12.7048 -60.0859 339° North  Level Estimated
Sat 01:56:00 AM 12.8226 -60.1318 339° North  Level Estimated
Sat 01:57:00 AM 12.9403 -60.1777 339° North  Level Estimated
Sat 01:58:00 AM 13.0581 -60.2236 339° North  Level Estimated
Sat 01:58:17 AM 11.5320 -64.1500 339° North 499 574 34,000  Level FlightAware ADS-B
Sat 01:58:57 AM 11.6070 -64.1750 342° North 499 574 34,000  Level FlightAware ADS-B
Sat 01:59:00 AM 13.1758 -60.2696 339° North  Level Estimated
Sat 01:59:37 AM 11.6810 -64.2000 342° North 499 574 34,000  Level FlightAware ADS-B
Sat 02:00:27 AM 11.7750 -64.2310 342° North 499 574 34,000  Level FlightAware ADS-B
Sat 02:01:07 AM 11.4830 -64.1340 162° South 34,000  Level FlightAware ADS-B
Sat 02:03:00 AM 11.7126 -64.1949 345° North  Level Estimated
Sat 02:04:00 AM 11.8345 -64.2273 345° North  Level Estimated
Sat 02:05:00 AM 11.9567 -64.2598 345° North  Level Estimated
Sat 02:05:22 AM 12.4710 -64.4480 345° North 498 573 34,000  Level FlightAware ADS-B
Sat 02:05:57 AM 12.5380 -64.4700 342° North 498 573 34,000  Level FlightAware ADS-B
Sat 02:06:37 AM 12.6120 -64.4950 342° North 498 573 34,000  Level FlightAware ADS-B
Sat 02:07:17 AM 12.4710 -64.4480 162° South 34,000  Level FlightAware ADS-B
Sat 02:07:52 AM 12.8060 -64.5570 342° North 494 568 34,000  Level FlightAware ADS-B
Sat 02:08:32 AM 12.8770 -64.5810 342° North 494 568 34,000  Level FlightAware ADS-B
Sat 02:09:17 AM 12.9870 -64.6160 343° North 495 570 34,000  Level FlightAware ADS-B
Sat 02:10:12 AM 13.1070 -64.6550 342° North 496 571 34,000  Level FlightAware ADS-B
Sat 02:10:57 AM 13.1960 -64.6850 342° North 497 572 34,000  Level FlightAware ADS-B
Sat 02:11:37 AM 13.2700 -64.7100 342° North 497 572 34,000  Level FlightAware ADS-B
Sat 02:12:17 AM 13.3450 -64.7340 343° North 497 572 34,000  Level FlightAware ADS-B
Sat 02:13:17 AM 13.5160 -64.7850 344° North 497 572 34,000  Level FlightAware ADS-B
Sat 02:14:07 AM 13.6170 -64.8170 343° North 497 572 34,000  Level FlightAware ADS-B
Sat 02:14:42 AM 13.7070 -64.8450 343° North 499 574 34,000  Level FlightAware ADS-B
Sat 02:16:42 AM 13.7560 -64.8610 342° North 498 573 34,000  Level FlightAware ADS-B
Sat 02:17:22 AM 13.8300 -64.8860 342° North 498 573 34,000  Level FlightAware ADS-B
Sat 02:18:27 AM 14.2020 -64.9970 344° North 492 566 34,000  Level FlightAware ADS-B
Sat 02:19:17 AM 14.3160 -65.0350 342° North 493 567 34,000  Level FlightAware ADS-B
Sat 02:20:02 AM 14.4120 -65.0690 341° North 489 563 34,000  Level FlightAware ADS-B
Sat 02:21:02 AM 14.5270 -65.1340 331° Northwest 485 558 34,000  Level FlightAware ADS-B
Sat 02:21:47 AM 14.6030 -65.1800 330° Northwest 485 558 34,000  Level FlightAware ADS-B
Sat 02:22:27 AM 14.6690 -65.2190 330° Northwest 485 558 34,000  Level FlightAware ADS-B
Sat 02:23:17 AM 14.7520 -65.2680 330° Northwest 485 558 34,000  Level FlightAware ADS-B
Sat 02:23:57 AM 14.8180 -65.3080 330° Northwest 485 558 34,000  Level FlightAware ADS-B
Sat 02:24:37 AM 14.8840 -65.3470 330° Northwest 485 558 34,000  Level FlightAware ADS-B
Sat 02:25:17 AM 14.9500 -65.3870 330° Northwest 485 558 34,000  Level FlightAware ADS-B
Sat 02:25:57 AM 15.0160 -65.4260 330° Northwest 485 558 34,000  Level FlightAware ADS-B
Sat 02:26:47 AM 15.0990 -65.4760 330° Northwest 485 558 34,000  Level FlightAware ADS-B
Sat 02:27:27 AM 15.1650 -65.5150 330° Northwest 485 558 34,000  Level FlightAware ADS-B
Sat 02:28:07 AM 15.2310 -65.5550 330° Northwest 485 558 34,000  Level FlightAware ADS-B
Sat 02:28:47 AM 15.2970 -65.5940 330° Northwest 485 558 34,000  Level FlightAware ADS-B
Sat 02:29:27 AM 15.3630 -65.6340 330° Northwest 485 558 34,000  Level FlightAware ADS-B
Sat 02:30:17 AM 15.4460 -65.6830 330° Northwest 485 558 34,000  Level FlightAware ADS-B
Sat 02:30:57 AM 15.5120 -65.7230 330° Northwest 485 558 34,000 1,237 Level FlightAware ADS-B
Sat 02:31:54 AM 16.0000 -65.3167 330° Northwest 520 598 36,000 1,017 Climbing San Juan Center
Sat 02:32:55 AM 16.1333 -65.2667 20° North 530 610 36,000  Level San Juan Center
Sat 02:33:55 AM 16.2833 -65.2167 18° North 540 621 36,000  Level San Juan Center
Sat 02:34:55 AM 16.4167 -65.1667 20° North 540 621 36,000  Level San Juan Center
Sat 02:40:17 AM 17.2090 -64.9040 20° North 523 602 36,000  Level FlightAware ADS-B
Sat 02:40:57 AM 17.2900 -64.8930 North 523 602 36,000  Level FlightAware ADS-B
Sat 02:41:37 AM 17.3720 -64.8830 North 523 602 36,000  Level FlightAware ADS-B
Sat 02:42:12 AM 17.4770 -64.9300 337° Northwest 470 541 36,000  Level FlightAware ADS-B
Sat 02:42:52 AM 17.5520 -64.9700 333° Northwest 460 529 36,000  Level FlightAware ADS-B
Sat 02:43:32 AM 17.6300 -65.0130 332° Northwest 461 531 36,000  Level FlightAware ADS-B
Sat 02:44:17 AM 17.7160 -65.0600 333° Northwest 460 529 36,000  Level FlightAware ADS-B
Sat 02:44:52 AM 17.7810 -65.0950 333° Northwest 463 533 36,000  Level FlightAware ADS-B
Sat 02:45:42 AM 17.8700 -65.1440 332° Northwest 461 531 36,000  Level FlightAware ADS-B
Sat 02:46:22 AM 17.9520 -65.1880 333° Northwest 463 533 36,000  Level FlightAware ADS-B
Sat 02:47:02 AM 18.0270 -65.2290 333° Northwest 464 534 36,000  Level FlightAware ADS-B
Sat 02:47:47 AM 18.1170 -65.2780 333° Northwest 466 536 36,000  Level FlightAware ADS-B
Sat 02:48:37 AM 18.2050 -65.3270 332° Northwest 466 536 36,000  Level FlightAware ADS-B
Sat 02:49:22 AM 18.2980 -65.3770 333° Northwest 468 539 36,000  Level FlightAware ADS-B
Sat 02:50:07 AM 18.3860 -65.4250 333° Northwest 470 541 36,000  Level FlightAware ADS-B
Sat 02:50:47 AM 18.4640 -65.4680 332° Northwest 471 542 36,000  Level FlightAware ADS-B
Sat 02:51:27 AM 18.5430 -65.5110 333° Northwest 474 545 36,000  Level FlightAware ADS-B
Sat 02:52:12 AM 18.6280 -65.5580 332° Northwest 473 544 36,000  Level FlightAware ADS-B
Sat 02:52:52 AM 18.7060 -65.6010 332° Northwest 475 547 36,000  Level FlightAware ADS-B
Sat 02:53:37 AM 18.7950 -65.6500 332° Northwest 478 550 36,000  Level FlightAware ADS-B
Sat 02:54:17 AM 18.8750 -65.6940 333° Northwest 480 552 36,000  Level FlightAware ADS-B
Sat 02:54:57 AM 18.9540 -65.7360 333° Northwest 478 550 36,000  Level FlightAware ADS-B
Sat 02:55:42 AM 19.0410 -65.7820 333° Northwest 475 547 36,000  Level FlightAware ADS-B
Sat 02:56:22 AM 19.1170 -65.8230 333° Northwest 474 545 36,000  Level FlightAware ADS-B
Sat 02:57:07 AM 19.2090 -65.8730 333° Northwest 478 550 36,000  Level FlightAware ADS-B
Sat 02:57:47 AM 19.2880 -65.9160 333° Northwest 478 550 36,000  Level FlightAware ADS-B
Sat 02:58:27 AM 19.3670 -65.9580 333° Northwest 479 551 36,000  Level FlightAware ADS-B
Sat 02:59:12 AM 19.4560 -66.0070 333° Northwest 478 550 36,000  Level FlightAware ADS-B
Sat 02:59:52 AM 19.5340 -66.0490 333° Northwest 478 550 36,000  Level FlightAware ADS-B
Sat 03:00:37 AM 19.6150 -66.0930 333° Northwest 479 551 36,000  Level FlightAware ADS-B
Sat 03:01:17 AM 19.7020 -66.1400 333° Northwest 480 552 36,000  Level FlightAware ADS-B
Sat 03:01:57 AM 19.7800 -66.1820 333° Northwest 482 555 36,000  Level FlightAware ADS-B
Sat 03:02:42 AM 19.8710 -66.2320 333° Northwest 481 554 36,000  Level FlightAware ADS-B
Sat 03:03:22 AM 19.9520 -66.2760 333° Northwest 482 555 36,000  Level FlightAware ADS-B
Sat 03:04:02 AM 20.0310 -66.3190 333° Northwest 483 556 36,000  Level FlightAware ADS-B
Sat 03:04:47 AM 20.1160 -66.3660 333° Northwest 486 559 36,000  Level FlightAware ADS-B
Sat 03:05:27 AM 20.1990 -66.4110 333° Northwest 483 556 36,000  Level FlightAware ADS-B
Sat 03:06:12 AM 20.2900 -66.4610 333° Northwest 479 551 36,000  Level FlightAware ADS-B
Sat 03:06:52 AM 20.3680 -66.5040 333° Northwest 476 548 36,000  Level FlightAware ADS-B
Sat 03:07:32 AM 20.4460 -66.5470 333° Northwest 477 549 36,000  Level FlightAware ADS-B
Sat 03:08:12 AM 20.5250 -66.5900 333° Northwest 477 549 36,000  Level FlightAware ADS-B
Sat 03:08:57 AM 20.6080 -66.6360 333° Northwest 477 549 36,000  Level FlightAware ADS-B
Sat 03:09:37 AM 20.6740 -66.6740 332° Northwest 477 549 36,000  Level FlightAware ADS-B
Sat 03:10:17 AM 20.7410 -66.7120 332° Northwest 477 549 36,000  Level FlightAware ADS-B
Sat 03:11:07 AM 20.8670 -66.7780 334° Northwest 480 552 36,000  Level FlightAware ADS-B
Sat 03:11:47 AM 20.9380 -66.8190 332° Northwest 481 554 36,000  Level FlightAware ADS-B
Sat 03:12:27 AM 21.0190 -66.8630 333° Northwest 481 554 36,000  Level FlightAware ADS-B
Sat 03:13:07 AM 21.0850 -66.9010 332° Northwest 481 554 36,000  Level FlightAware ADS-B
Sat 03:13:47 AM 21.1520 -66.9390 332° Northwest 481 554 36,000  Level FlightAware ADS-B
Sat 03:14:37 AM 21.2360 -66.9870 332° Northwest 481 554 36,000  Level FlightAware ADS-B
Sat 03:15:17 AM 21.3030 -67.0250 332° Northwest 481 554 36,000  Level FlightAware ADS-B
Sat 03:15:57 AM 21.3690 -67.0630 332° Northwest 481 554 36,000  Level FlightAware ADS-B
Sat 03:16:37 AM 21.4360 -67.1010 332° Northwest 481 554 36,000  Level FlightAware ADS-B
Sat 03:17:17 AM 21.5030 -67.1400 332° Northwest 481 554 36,000  Level FlightAware ADS-B
Sat 03:18:07 AM 21.5860 -67.1870 332° Northwest 481 554 36,000  Level FlightAware ADS-B
Sat 03:18:08 AM 21.6000 -67.2000 360° North 438 504 36,000  Level New York Oceanic (ODAPS)
Sat 03:18:43 AM 21.6167 -67.2000 349° North 475 547 36,000  Level New York Oceanic (ODAPS)
Sat 03:18:47 AM 21.6530 -67.2260 332° Northwest 481 554 36,000  Level FlightAware ADS-B
Sat 03:19:09 AM 21.8167 -67.2333 349° North 470 541 36,000  Level San Juan Center
Sat 03:19:27 AM 21.7200 -67.2640 332° Northwest 481 554 36,000  Level FlightAware ADS-B
Sat 03:20:07 AM 21.7870 -67.3020 332° Northwest 481 554 36,000  Level FlightAware ADS-B
Sat 03:20:09 AM 21.9333 -67.2667 345° North 470 541 36,000  Level San Juan Center
Sat 03:20:57 AM 21.8700 -67.3500 332° Northwest 481 554 36,000  Level FlightAware ADS-B
Sat 03:21:09 AM 22.0667 -67.2833 353° North 480 552 36,000  Level San Juan Center
Sat 03:21:37 AM 21.9370 -67.3880 332° Northwest 481 554 36,000  Level FlightAware ADS-B
Sat 03:22:24 AM 22.2333 -67.3167 349° North 472 543 36,000  Level New York Oceanic (ODAPS)
Sat 03:23:10 AM 22.3333 -67.3333 349° North 470 541 36,000  Level San Juan Center
Sat 03:24:10 AM 22.4667 -67.3667 347° North 470 541 36,000  Level San Juan Center
Sat 03:25:10 AM 22.6000 -67.4000 347° North 480 552 36,000  Level San Juan Center
Sat 03:26:11 AM 22.7167 -67.4167 352° North 470 541 36,000  Level San Juan Center
Sat 03:27:11 AM 22.8500 -67.4500 347° North 470 541 36,000  Level San Juan Center
Sat 03:28:11 AM 22.9833 -67.4667 353° North 470 541 36,000  Level San Juan Center
Sat 03:29:12 AM 23.1000 -67.5000 345° North 470 541 36,000  Level San Juan Center
Sat 03:30:12 AM 23.2333 -67.5167 353° North 470 541 36,000  Level San Juan Center
Sat 03:31:12 AM 23.3667 -67.5500 347° North 470 541 36,000  Level San Juan Center
Sat 03:31:53 AM 23.3833 -67.5667 349° North 468 539 36,000  Level New York Oceanic (ODAPS)
Sat 03:32:13 AM 23.5000 -67.5833 349° North 470 541 36,000  Level San Juan Center
Sat 03:33:13 AM 23.6167 -67.6000 353° North 470 541 36,000  Level San Juan Center
Sat 03:34:13 AM 23.7500 -67.6333 347° North 470 541 36,000  Level San Juan Center
Sat 03:35:14 AM 23.8833 -67.6667 347° North 470 541 36,000  Level San Juan Center
Sat 03:36:14 AM 24.0000 -67.6833 353° North 470 541 36,000  Level San Juan Center
Sat 03:37:14 AM 24.1333 -67.7167 347° North 470 541 36,000  Level San Juan Center
Sat 03:38:11 AM 24.2667 -67.7500 349° North 478 550 36,000  Level New York Oceanic (ODAPS)
Sat 03:44:00 AM 25.0328 -67.9124 349° North 478 550 36,000  Level FlightAware Transoceanic
Sat 03:45:00 AM 25.1605 -67.9397 349° North 478 550 36,000  Level FlightAware Transoceanic
Sat 03:45:14 AM 25.1833 -67.9333 349° North 474 545 36,000  Level New York Oceanic (ODAPS)
Sat 03:46:00 AM 25.2882 -67.9670 349° North 478 550 36,000  Level FlightAware Transoceanic
Sat 03:47:00 AM 25.4158 -67.9944 349° North 478 550 36,000  Level FlightAware Transoceanic
Sat 03:47:23 AM 25.4667 -68.0000 349° North 477 549 36,000  Level New York Oceanic (ODAPS)
Sat 03:48:00 AM 25.5435 -68.0219 349° North 478 550 36,000  Level FlightAware Transoceanic
Sat 03:49:00 AM 25.6711 -68.0494 349° North 478 550 36,000  Level FlightAware Transoceanic
Sat 03:50:00 AM 25.7988 -68.0769 349° North 478 550 36,000  Level FlightAware Transoceanic
Sat 03:51:00 AM 25.9462 -68.0990 349° North 474 545 36,000  Level FlightAware Transoceanic
Sat 03:52:00 AM 26.0734 -68.1268 349° North 474 545 36,000  Level FlightAware Transoceanic
Sat 03:53:00 AM 26.2435 -68.1688 349° North 477 549 36,000  Level FlightAware Transoceanic
Sat 03:54:00 AM 26.3730 -68.1972 349° North 477 549 36,000  Level FlightAware Transoceanic
Sat 03:55:00 AM 26.5024 -68.2256 349° North 477 549 36,000  Level FlightAware Transoceanic
Sat 03:56:00 AM 26.6318 -68.2541 349° North 477 549 36,000  Level FlightAware Transoceanic
Sat 03:57:00 AM 26.7613 -68.2826 349° North 477 549 36,000  Level FlightAware Transoceanic
Sat 03:58:00 AM 26.8907 -68.3112 349° North 477 549 36,000  Level FlightAware Transoceanic
Sat 03:59:00 AM 27.0201 -68.3399 349° North 477 549 36,000  Level FlightAware Transoceanic
Sat 03:59:05 AM 27.0000 -68.3333 349° North 479 551 36,000  Level New York Oceanic (ODAPS)
Sat 04:00:00 AM 27.1496 -68.3686 349° North 477 549 36,000  Level FlightAware Transoceanic
Sat 04:01:00 AM 27.2790 -68.3974 349° North 477 549 36,000  Level FlightAware Transoceanic
Sat 04:02:00 AM 27.4084 -68.4263 349° North 477 549 36,000  Level FlightAware Transoceanic
Sat 04:03:00 AM 27.5378 -68.4552 349° North 477 549 36,000  Level FlightAware Transoceanic
Sat 04:04:00 AM 27.6672 -68.4843 349° North 477 549 36,000  Level FlightAware Transoceanic
Sat 04:05:00 AM 27.7805 -68.5080 349° North 479 551 36,000  Level FlightAware Transoceanic
Sat 04:06:00 AM 27.9105 -68.5374 349° North 479 551 36,000  Level FlightAware Transoceanic
Sat 04:06:23 AM 27.9333 -68.5333 349° North 472 543 36,000  Level New York Oceanic (ODAPS)
Sat 04:07:00 AM 28.0406 -68.5668 349° North 479 551 36,000  Level FlightAware Transoceanic
Sat 04:08:00 AM 28.1706 -68.5963 349° North 479 551 36,000  Level FlightAware Transoceanic
Sat 04:09:00 AM 28.3007 -68.6259 349° North 479 551 36,000  Level FlightAware Transoceanic
Sat 04:10:00 AM 28.4307 -68.6555 349° North 479 551 36,000  Level FlightAware Transoceanic
Sat 04:11:00 AM 28.5607 -68.6853 349° North 479 551 36,000  Level FlightAware Transoceanic
Sat 04:12:00 AM 28.7076 -68.7121 348° North 472 543 36,000  Level FlightAware Transoceanic
Sat 04:13:00 AM 28.8366 -68.7421 348° North 472 543 36,000  Level FlightAware Transoceanic
Sat 04:13:01 AM 28.8000 -68.7333 348° North 434 499 36,000  Level New York Oceanic (ODAPS)
Sat 04:13:14 AM 28.8167 -68.7333 348° North 463 533 36,000  Level New York Oceanic (ODAPS)
Sat 04:14:00 AM 28.9656 -68.7722 348° North 472 543 36,000  Level FlightAware Transoceanic
Sat 04:15:00 AM 29.0946 -68.8024 348° North 472 543 36,000  Level FlightAware Transoceanic
Sat 04:16:00 AM 29.2236 -68.8327 348° North 472 543 36,000  Level FlightAware Transoceanic
Sat 04:17:00 AM 29.3526 -68.8630 348° North 472 543 36,000  Level FlightAware Transoceanic
Sat 04:18:00 AM 29.4816 -68.8934 348° North 472 543 36,000  Level FlightAware Transoceanic
Sat 04:19:00 AM 29.5981 -68.9184 348° North 463 533 36,000  Level FlightAware Transoceanic
Sat 04:20:00 AM 29.7284 -68.9495 348° North 463 533 36,000  Level FlightAware Transoceanic
Sat 04:21:00 AM 29.8586 -68.9807 348° North 463 533 36,000  Level FlightAware Transoceanic
Sat 04:22:00 AM 29.9888 -69.0120 348° North 463 533 36,000  Level FlightAware Transoceanic
Sat 04:23:00 AM 30.1190 -69.0434 348° North 463 533 36,000  Level FlightAware Transoceanic
Sat 04:24:00 AM 30.2492 -69.0748 348° North 463 533 36,000  Level FlightAware Transoceanic
Sat 04:25:00 AM 30.3794 -69.1064 348° North 463 533 36,000  Level FlightAware Transoceanic
Sat 04:26:00 AM 30.5095 -69.1380 348° North 463 533 36,000  Level FlightAware Transoceanic
Sat 04:26:37 AM 30.5000 -69.1333 348° North 443 510 36,000  Level New York Oceanic (ODAPS)
Sat 04:27:00 AM 30.6397 -69.1697 348° North 463 533 36,000  Level FlightAware Transoceanic
Sat 04:28:00 AM 30.7698 -69.2015 348° North 463 533 36,000  Level FlightAware Transoceanic
Sat 04:29:00 AM 30.9000 -69.2333 349° North 463 533 36,000  Level FlightAware Transoceanic
Sat 04:29:58 AM 30.9000 -69.2333 349° North 446 513 36,000  Level New York Oceanic (ODAPS)
Sat 04:30:00 AM 31.0288 -69.2639 348° North 463 533 36,000  Level FlightAware Transoceanic
Sat 04:31:00 AM 31.1577 -69.2945 348° North 463 533 36,000  Level FlightAware Transoceanic
Sat 04:32:00 AM 31.2865 -69.3252 348° North 463 533 36,000  Level FlightAware Transoceanic
Sat 04:33:00 AM 31.2939 -69.3270 348° North 443 510 36,000  Level FlightAware Transoceanic
Sat 04:34:00 AM 31.4252 -69.3584 348° North 443 510 36,000  Level FlightAware Transoceanic
Sat 04:35:00 AM 31.5565 -69.3899 348° North 443 510 36,000  Level FlightAware Transoceanic
Sat 04:36:00 AM 31.6729 -69.4179 348° North 446 513 36,000  Level FlightAware Transoceanic
Sat 04:37:00 AM 31.8017 -69.4490 348° North 446 513 36,000  Level FlightAware Transoceanic
Sat 04:38:00 AM 31.9305 -69.4801 348° North 446 513 36,000  Level FlightAware Transoceanic
Sat 04:39:00 AM 32.0592 -69.5113 348° North 446 513 36,000  Level FlightAware Transoceanic
Sat 04:40:00 AM 32.1880 -69.5426 348° North 446 513 36,000  Level FlightAware Transoceanic
Sat 04:40:29 AM 32.1667 -69.5333 348° North 448 516 36,000  Level New York Oceanic (ODAPS)
Sat 04:41:00 AM 32.3167 -69.5741 348° North 446 513 36,000  Level FlightAware Transoceanic
Sat 04:42:00 AM 32.4455 -69.6056 348° North 446 513 36,000  Level FlightAware Transoceanic
Sat 04:43:00 AM 32.5742 -69.6372 348° North 446 513 36,000  Level FlightAware Transoceanic
Sat 04:44:00 AM 32.7030 -69.6688 348° North 446 513 36,000  Level FlightAware Transoceanic
Sat 04:45:00 AM 32.8317 -69.7006 348° North 446 513 36,000  Level FlightAware Transoceanic
Sat 04:46:00 AM 32.9421 -69.7243 348° North 448 516 36,000  Level FlightAware Transoceanic
Sat 04:47:00 AM 33.0713 -69.7565 348° North 448 516 36,000  Level FlightAware Transoceanic
Sat 04:48:00 AM 33.2005 -69.7887 348° North 448 516 36,000  Level FlightAware Transoceanic
Sat 04:49:00 AM 33.3297 -69.8211 348° North 448 516 36,000  Level FlightAware Transoceanic
Sat 04:49:41 AM 33.3000 -69.8167 348° North 468 539 36,000  Level New York Oceanic (ODAPS)
Sat 04:50:00 AM 33.4589 -69.8535 348° North 448 516 36,000  Level FlightAware Transoceanic
Sat 04:51:00 AM 33.5880 -69.8861 348° North 448 516 36,000  Level FlightAware Transoceanic
Sat 04:52:00 AM 33.7172 -69.9187 348° North 448 516 36,000  Level FlightAware Transoceanic
Sat 04:53:00 AM 33.8464 -69.9514 348° North 448 516 36,000  Level FlightAware Transoceanic
Sat 04:54:00 AM 33.9755 -69.9843 348° North 448 516 36,000  Level FlightAware Transoceanic
Sat 04:55:00 AM 34.1046 -70.0172 348° North 448 516 36,000  Level FlightAware Transoceanic
Sat 04:55:46 AM 33.9000 -69.9667 348° North 474 545 36,000  Level New York Oceanic (ODAPS)
Sat 04:56:00 AM 34.1038 -70.0195 348° North 468 539 36,000  Level FlightAware Transoceanic
Sat 04:57:00 AM 34.2378 -70.0537 348° North 468 539 36,000  Level FlightAware Transoceanic
Sat 04:58:00 AM 34.3717 -70.0880 348° North 468 539 36,000  Level FlightAware Transoceanic
Sat 04:59:00 AM 34.5056 -70.1224 348° North 468 539 36,000  Level FlightAware Transoceanic
Sat 05:00:00 AM 34.6395 -70.1569 348° North 468 539 36,000  Level FlightAware Transoceanic
Sat 05:01:00 AM 34.7734 -70.1915 348° North 468 539 36,000  Level FlightAware Transoceanic
Sat 05:02:00 AM 34.9537 -70.2375 348° North 474 545 36,000  Level FlightAware Transoceanic
Sat 05:03:00 AM 35.0854 -70.2719 348° North 474 545 36,000  Level FlightAware Transoceanic
Sat 05:04:00 AM 35.2170 -70.3063 348° North 474 545 36,000  Level FlightAware Transoceanic
Sat 05:05:00 AM 35.3487 -70.3409 348° North 474 545 36,000  Level FlightAware Transoceanic
Sat 05:06:00 AM 35.4803 -70.3756 348° North 474 545 36,000  Level FlightAware Transoceanic
Sat 05:07:00 AM 35.6120 -70.4104 348° North 474 545 36,000  Level FlightAware Transoceanic
Sat 05:08:00 AM 35.7436 -70.4453 348° North 474 545 36,000  Level FlightAware Transoceanic
Sat 05:09:00 AM 35.8752 -70.4803 348° North 474 545 36,000  Level FlightAware Transoceanic
Sat 05:09:34 AM 35.7167 -70.4333 348° North 463 533 36,000  Level New York Oceanic (ODAPS)
Sat 05:10:00 AM 36.0068 -70.5154 348° North 474 545 36,000  Level FlightAware Transoceanic
Sat 05:10:16 AM 35.7667 -70.4500 348° North 485 558 36,000  Level New York Oceanic (ODAPS)
Sat 05:11:00 AM 36.1384 -70.5507 348° North 474 545 36,000  Level FlightAware Transoceanic
Sat 05:12:00 AM 36.2700 -70.5861 348° North 474 545 36,000  Level FlightAware Transoceanic
Sat 05:13:00 AM 36.4016 -70.6216 348° North 474 545 36,000  Level FlightAware Transoceanic
Sat 05:14:00 AM 36.5331 -70.6572 348° North 474 545 36,000  Level FlightAware Transoceanic
Sat 05:15:00 AM 36.6503 -70.6864 348° North 463 533 36,000  Level FlightAware Transoceanic
Sat 05:16:00 AM 36.8070 -70.7311 348° North 485 558 36,000  Level FlightAware Transoceanic
Sat 05:17:00 AM 36.9370 -70.7667 348° North 485 558 36,000  Level FlightAware Transoceanic
Sat 05:18:00 AM 37.0669 -70.8025 348° North 485 558 36,000  Level FlightAware Transoceanic
Sat 05:19:00 AM 37.1969 -70.8384 348° North 485 558 36,000  Level FlightAware Transoceanic
Sat 05:19:23 AM 37.2203 -70.8500 348° North 496 571 36,000  Level New York Center
Sat 05:20:00 AM 37.3269 -70.8745 348° North 485 558 36,000 -103 Level FlightAware Transoceanic
Sat 05:20:21 AM 37.3578 -70.8817 350° North 496 571 35,900  Descending New York Center
Sat 05:21:00 AM 37.4568 -70.9106 348° North 485 558 36,000 16 Climbing FlightAware Transoceanic
Sat 05:26:35 AM 38.0417 -71.4766 350° North 482 555 36,000  Level FlightAware ADS-B
Sat 05:27:07 AM 38.0934 -71.5367 318° Northwest 481 554 36,000  Level FlightAware ADS-B
Sat 05:27:38 AM 38.1443 -71.5961 317° Northwest 482 555 36,000  Level FlightAware ADS-B
Sat 05:28:08 AM 38.1941 -71.6540 318° Northwest 482 555 36,000  Level FlightAware ADS-B
Sat 05:28:39 AM 38.2448 -71.7132 317° Northwest 483 556 36,000  Level FlightAware ADS-B
Sat 05:29:11 AM 38.2969 -71.7741 317° Northwest 481 554 36,000  Level FlightAware ADS-B
Sat 05:29:42 AM 38.3477 -71.8336 317° Northwest 480 552 36,000  Level FlightAware ADS-B
Sat 05:30:12 AM 38.3967 -71.8911 317° Northwest 479 551 36,000 -100 Level FlightAware ADS-B
Sat 05:30:42 AM 38.4460 -71.9492 317° Northwest 481 554 35,900 -492 Descending FlightAware ADS-B
Sat 05:31:13 AM 38.4960 -72.0084 317° Northwest 490 564 35,500 -1,180 Descending FlightAware ADS-B
Sat 05:31:43 AM 38.5466 -72.0681 317° Northwest 497 572 34,700 -1,800 Descending FlightAware ADS-B
Sat 05:32:13 AM 38.5979 -72.1288 317° Northwest 504 580 33,700 -2,032 Descending FlightAware ADS-B
Sat 05:32:45 AM 38.6522 -72.1932 317° Northwest 507 583 32,600 -2,095 Descending FlightAware ADS-B
Sat 05:33:16 AM 38.7053 -72.2562 317° Northwest 505 581 31,500 -2,164 Descending FlightAware ADS-B
Sat 05:33:46 AM 38.7566 -72.3174 317° Northwest 503 579 30,400 -2,300 Descending FlightAware ADS-B
Sat 05:34:16 AM 38.8077 -72.3783 317° Northwest 497 572 29,200 -2,323 Descending FlightAware ADS-B
Sat 05:34:48 AM 38.8603 -72.4412 317° Northwest 487 560 28,000 -2,226 Descending FlightAware ADS-B
Sat 05:35:18 AM 38.9096 -72.5002 317° Northwest 477 549 26,900 -2,164 Descending FlightAware ADS-B
Sat 05:35:49 AM 38.9581 -72.5587 317° Northwest 467 537 25,800 -2,066 Descending FlightAware ADS-B
Sat 05:36:19 AM 39.0046 -72.6149 317° Northwest 456 525 24,800 -2,066 Descending FlightAware ADS-B
Sat 05:36:50 AM 39.0518 -72.6718 317° Northwest 446 513 23,700 -1,967 Descending FlightAware ADS-B
Sat 05:37:20 AM 39.0964 -72.7258 317° Northwest 438 504 22,800 -1,900 Descending FlightAware ADS-B
Sat 05:37:50 AM 39.1408 -72.7796 317° Northwest 439 505 21,800 -1,900 Descending FlightAware ADS-B
Sat 05:38:20 AM 39.1854 -72.8337 317° Northwest 436 502 20,900 -1,869 Descending FlightAware ADS-B
Sat 05:38:51 AM 39.2305 -72.8882 317° Northwest 430 495 19,900 -1,839 Descending FlightAware ADS-B
Sat 05:39:22 AM 39.2739 -72.9410 317° Northwest 423 487 19,000 -1,869 Descending FlightAware ADS-B
Sat 05:39:52 AM 39.3167 -72.9933 317° Northwest 417 480 18,000 -1,869 Descending FlightAware ADS-B
Sat 05:40:23 AM 39.3600 -73.0460 317° Northwest 413 475 17,100 -1,869 Descending FlightAware ADS-B
Sat 05:40:53 AM 39.4017 -73.0972 317° Northwest 409 471 16,100 -1,869 Descending FlightAware ADS-B
Sat 05:41:24 AM 39.4435 -73.1485 317° Northwest 401 461 15,200 -1,475 Descending FlightAware ADS-B
Sat 05:41:54 AM 39.4838 -73.1980 317° Northwest 395 455 14,600 -1,100 Descending FlightAware ADS-B
Sat 05:42:24 AM 39.5234 -73.2465 317° Northwest 390 449 14,100 -1,065 Descending FlightAware ADS-B
Sat 05:42:56 AM 39.5641 -73.2969 316° Northwest 388 447 13,500 -990 Descending FlightAware ADS-B
Sat 05:44:07 AM 39.6520 -73.4040 317° Northwest 357 411 12,400 -897 Descending FlightAware ADS-B
Sat 05:44:23 AM 39.6729 -73.4310 315° West 387 445 12,200 -706 Descending FlightAware ADS-B
Sat 05:45:32 AM 39.7450 -73.5210 316° Northwest 306 352 11,400 -832 Descending FlightAware ADS-B
Sat 05:46:04 AM 39.7788 -73.5631 316° Northwest 308 354 10,800 -1,065 Descending FlightAware ADS-B
Sat 05:46:34 AM 39.8084 -73.5999 316° Northwest 289 333 10,300 -1,043 Descending FlightAware ADS-B
Sat 05:46:50 AM 39.8237 -73.6188 317° Northwest 287 330 10,000 -1,161 Descending FlightAware ADS-B
Sat 05:47:05 AM 39.8381 -73.6366 316° Northwest 282 325 9,700 -1,161 Descending FlightAware ADS-B
Sat 05:47:21 AM 39.8534 -73.6555 317° Northwest 282 325 9,400 -938 Descending FlightAware ADS-B
Sat 05:47:37 AM 39.8675 -73.6731 316° Northwest 279 321 9,200 -581 Descending FlightAware ADS-B
Sat 05:47:52 AM 39.8986 -73.6424 37° Northeast 279 321 9,100 -222 Descending FlightAware ADS-B
Sat 05:48:04 AM 39.8926 -73.7045 263° West 280 322 9,100  Level FlightAware ADS-B
Sat 05:48:09 AM 39.8978 -73.7099 321° Northwest 284 327 9,100  Level FlightAware ADS-B
Sat 05:48:15 AM 39.9055 -73.7155 331° Northwest 290 334 9,100  Level FlightAware ADS-B
Sat 05:48:19 AM 39.9106 -73.7180 339° North 297 342 9,100  Level FlightAware ADS-B
Sat 05:48:22 AM 39.9147 -73.7195 344° North 302 348 9,100  Level FlightAware ADS-B
Sat 05:48:33 AM 39.9303 -73.7214 355° North 316 364 9,100  Level FlightAware ADS-B
Sat 05:48:43 AM 39.9444 -73.7205 North 318 366 9,100 240 Level FlightAware ADS-B
Sat 05:48:58 AM 39.9674 -73.7176 North 324 373 9,200  Climbing FlightAware ADS-B
Sat 05:49:13 AM 39.9903 -73.7149 North 323 372 9,100 -194 Descending FlightAware ADS-B
Sat 05:49:29 AM 40.0132 -73.7124 North 324 373 9,100 -194 Level FlightAware ADS-B
Sat 05:49:44 AM 40.0367 -73.7097 North 326 375 9,000 -968 Descending FlightAware ADS-B
Sat 05:50:00 AM 40.0605 -73.7068 North 325 374 8,600 -1,161 Descending FlightAware ADS-B
Sat 05:50:15 AM 40.0832 -73.7040 North 322 371 8,400 -1,071 Descending FlightAware ADS-B
Sat 05:50:28 AM 40.1016 -73.7017 North 323 372 8,100 -1,500 Descending FlightAware ADS-B
Sat 05:50:43 AM 40.1247 -73.6985 North 325 374 7,700 -1,548 Descending FlightAware ADS-B
Sat 05:50:59 AM 40.1483 -73.6951 North 326 375 7,300 -1,500 Descending FlightAware ADS-B
Sat 05:51:11 AM 40.1664 -73.6922 North 328 377 7,000 -1,500 Descending FlightAware ADS-B
Sat 05:51:15 AM 40.1727 -73.6905 12° North 330 380 6,900 -857 Descending FlightAware ADS-B
Sat 05:51:18 AM 40.1775 -73.6888 15° North 333 383 6,900 -857 Level FlightAware ADS-B
Sat 05:51:29 AM 40.1936 -73.6815 19° North 334 384 6,700 -1,111 Descending FlightAware ADS-B
Sat 05:51:45 AM 40.2165 -73.6701 21° North 330 380 6,400 -909 Descending FlightAware ADS-B
Sat 05:52:02 AM 40.2403 -73.6583 21° North 325 374 6,200 -938 Descending FlightAware ADS-B
Sat 05:52:17 AM 40.2612 -73.6483 20° North 322 371 5,900 -938 Descending FlightAware ADS-B
Sat 05:52:34 AM 40.2840 -73.6375 20° North 316 364 5,700 -545 Descending FlightAware ADS-B
Sat 05:52:50 AM 40.3053 -73.6277 19° North 302 348 5,600 -462 Descending FlightAware ADS-B
Sat 05:53:00 AM 40.3193 -73.6211 20° North 295 339 5,500 -750 Descending FlightAware ADS-B
Sat 05:53:06 AM 40.3267 -73.6169 23° Northeast 291 335 5,400 -750 Descending FlightAware ADS-B
Sat 05:53:16 AM 40.3383 -73.6093 27° Northeast 286 329 5,300 -720 Descending FlightAware ADS-B
Sat 05:53:31 AM 40.3555 -73.5963 30° Northeast 276 318 5,100 -581 Descending FlightAware ADS-B
Sat 05:53:47 AM 40.3719 -73.5833 31° Northeast 264 304 5,000 -750 Descending FlightAware ADS-B
Sat 05:54:03 AM 40.3880 -73.5697 33° Northeast 256 295 4,700 -968 Descending FlightAware ADS-B
Sat 05:54:18 AM 40.4030 -73.5564 34° Northeast 250 288 4,500 -750 Descending FlightAware ADS-B
Sat 05:54:35 AM 40.4182 -73.5423 35° Northeast 244 281 4,300 -870 Descending FlightAware ADS-B
Sat 05:55:27 AM 40.4610 -73.5020 36° Northeast 230 265 3,500 -1,000 Descending FlightAware ADS-B
Sat 05:55:47 AM 40.4800 -73.4880 29° Northeast 218 251 3,100 -960 Descending FlightAware ADS-B
Sat 05:55:52 AM 40.4860 -73.4870 North 211 243 3,100  Level FlightAware ADS-B
Sat 05:56:27 AM 40.5160 -73.5020 339° North 197 227 3,100  Level FlightAware ADS-B
Sat 05:56:42 AM 40.5270 -73.5100 331° Northwest 195 224 3,100  Level FlightAware ADS-B
Sat 05:56:57 AM 40.5350 -73.5220 311° West 175 201 3,100  Level FlightAware ADS-B
Sat 05:57:12 AM 40.5420 -73.5360 303° West 160 184 3,100  Level FlightAware ADS-B
Sat 05:57:37 AM 40.5510 -73.5560 301° West 158 182 3,100  Level FlightAware ADS-B
Sat 05:58:07 AM 40.5630 -73.5810 302° West 158 182 3,100  Level FlightAware ADS-B
Sat 05:58:22 AM 40.5690 -73.5950 299° West 159 183 3,100 -600 Level FlightAware ADS-B
Sat 05:58:47 AM 40.5780 -73.6140 302° West 159 183 2,700 -873 Descending FlightAware ADS-B
Sat 05:59:17 AM 40.5890 -73.6390 300° West 157 181 2,300 -800 Descending FlightAware ADS-B
Sat 05:59:32 AM 40.5950 -73.6520 301° West 156 180 2,100 -750 Descending FlightAware ADS-B
Sat 05:59:57 AM 40.6040 -73.6710 302° West 152 175 1,800 -900 Descending FlightAware ADS-B
Sat 06:00:12 AM 40.6100 -73.6840 301° West 148 170 1,500 -933 Descending FlightAware ADS-B
Sat 06:00:42 AM 40.6200 -73.7060 301° West 134 154 1,100 -764 Descending FlightAware ADS-B
Sat 06:01:07 AM 40.6270 -73.7230 298° West 133 153 800 -750 Descending FlightAware ADS-B
Sat 06:01:22 AM 40.6320 -73.7330 303° West 131 151 600 -750 Descending FlightAware ADS-B
Sat 06:01:47 AM 40.6400 -73.7510 300° West 134 154 300 -750 Descending FlightAware ADS-B
Sat 06:02:02 AM 40.6450 -73.7620 301° West 136 157 100 -800 Descending FlightAware ADS-B

Login

Don't have an account? Register now (free) for customized features, flight alerts, and more!